sensor_id;sensor_type;location;lat;lon;timestamp;temperature;humidity
2497;DHT22;1259;48.306;14.374;2022-10-31T00:01:50;12.50;99.90
2497;DHT22;1259;48.306;14.374;2022-10-31T00:04:19;12.20;99.90
2497;DHT22;1259;48.306;14.374;2022-10-31T00:06:46;12.20;99.90
2497;DHT22;1259;48.306;14.374;2022-10-31T00:09:13;12.30;99.90
2497;DHT22;1259;48.306;14.374;2022-10-31T00:11:39;12.40;99.90
2497;DHT22;1259;48.306;14.374;2022-10-31T00:14:07;12.50;99.90
2497;DHT22;1259;48.306;14.374;2022-10-31T00:16:33;12.40;99.90
2497;DHT22;1259;48.306;14.374;2022-10-31T00:19:03;12.30;99.90
2497;DHT22;1259;48.306;14.374;2022-10-31T00:21:32;12.30;99.90
2497;DHT22;1259;48.306;14.374;2022-10-31T00:24:00;12.40;99.90
2497;DHT22;1259;48.306;14.374;2022-10-31T00:26:27;12.40;99.90
2497;DHT22;1259;48.306;14.374;2022-10-31T00:28:54;12.30;99.90
2497;DHT22;1259;48.306;14.374;2022-10-31T00:31:21;12.20;99.90
2497;DHT22;1259;48.306;14.374;2022-10-31T00:33:48;12.20;99.90
2497;DHT22;1259;48.306;14.374;2022-10-31T00:36:16;12.20;99.90
2497;DHT22;1259;48.306;14.374;2022-10-31T00:38:45;12.10;99.90
2497;DHT22;1259;48.306;14.374;2022-10-31T00:41:14;12.10;99.90
2497;DHT22;1259;48.306;14.374;2022-10-31T00:43:41;11.90;99.90
2497;DHT22;1259;48.306;14.374;2022-10-31T00:46:08;11.90;99.90
2497;DHT22;1259;48.306;14.374;2022-10-31T00:48:35;11.80;99.90
2497;DHT22;1259;48.306;14.374;2022-10-31T00:51:02;11.90;99.90
2497;DHT22;1259;48.306;14.374;2022-10-31T00:53:29;11.70;99.90
2497;DHT22;1259;48.306;14.374;2022-10-31T00:55:57;11.50;99.90
2497;DHT22;1259;48.306;14.374;2022-10-31T00:58:24;11.60;99.90
2497;DHT22;1259;48.306;14.374;2022-10-31T01:00:51;11.40;99.90
2497;DHT22;1259;48.306;14.374;2022-10-31T01:03:21;11.50;99.90
2497;DHT22;1259;48.306;14.374;2022-10-31T01:05:58;11.50;99.90
2497;DHT22;1259;48.306;14.374;2022-10-31T01:08:26;11.50;99.90
2497;DHT22;1259;48.306;14.374;2022-10-31T01:11:06;11.40;99.90
2497;DHT22;1259;48.306;14.374;2022-10-31T01:13:34;11.40;99.90
2497;DHT22;1259;48.306;14.374;2022-10-31T01:16:03;11.30;99.90
2497;DHT22;1259;48.306;14.374;2022-10-31T01:18:31;11.10;99.90
2497;DHT22;1259;48.306;14.374;2022-10-31T01:21:00;11.00;99.90
2497;DHT22;1259;48.306;14.374;2022-10-31T01:23:27;11.10;99.90
2497;DHT22;1259;48.306;14.374;2022-10-31T01:26:07;11.20;99.90
2497;DHT22;1259;48.306;14.374;2022-10-31T01:28:35;11.20;99.90
2497;DHT22;1259;48.306;14.374;2022-10-31T01:31:04;11.20;99.90
2497;DHT22;1259;48.306;14.374;2022-10-31T01:33:32;11.20;99.90
2497;DHT22;1259;48.306;14.374;2022-10-31T01:35:59;11.20;99.90
2497;DHT22;1259;48.306;14.374;2022-10-31T01:38:26;10.90;99.90
2497;DHT22;1259;48.306;14.374;2022-10-31T01:40:52;10.70;99.90
2497;DHT22;1259;48.306;14.374;2022-10-31T01:43:21;10.60;99.90
2497;DHT22;1259;48.306;14.374;2022-10-31T01:45:52;10.70;99.90
2497;DHT22;1259;48.306;14.374;2022-10-31T01:48:24;10.80;99.90
2497;DHT22;1259;48.306;14.374;2022-10-31T01:50:54;10.80;99.90
2497;DHT22;1259;48.306;14.374;2022-10-31T01:53:22;10.70;99.90
2497;DHT22;1259;48.306;14.374;2022-10-31T01:55:50;10.50;99.90
2497;DHT22;1259;48.306;14.374;2022-10-31T01:58:22;10.50;99.90
2497;DHT22;1259;48.306;14.374;2022-10-31T02:00:57;10.60;99.90
2497;DHT22;1259;48.306;14.374;2022-10-31T02:03:25;10.50;99.90
2497;DHT22;1259;48.306;14.374;2022-10-31T02:05:54;10.60;99.90
2497;DHT22;1259;48.306;14.374;2022-10-31T02:08:26;10.80;99.90
2497;DHT22;1259;48.306;14.374;2022-10-31T02:10:54;10.80;99.90
2497;DHT22;1259;48.306;14.374;2022-10-31T02:13:23;10.70;99.90
2497;DHT22;1259;48.306;14.374;2022-10-31T02:15:53;10.50;99.90
2497;DHT22;1259;48.306;14.374;2022-10-31T02:18:20;10.70;99.90
2497;DHT22;1259;48.306;14.374;2022-10-31T02:20:57;10.70;99.90
2497;DHT22;1259;48.306;14.374;2022-10-31T02:23:45;10.70;99.90
2497;DHT22;1259;48.306;14.374;2022-10-31T02:26:49;10.70;99.90
2497;DHT22;1259;48.306;14.374;2022-10-31T02:29:52;10.70;99.90
2497;DHT22;1259;48.306;14.374;2022-10-31T02:32:27;10.70;99.90
2497;DHT22;1259;48.306;14.374;2022-10-31T02:34:58;10.80;99.90
2497;DHT22;1259;48.306;14.374;2022-10-31T02:37:34;10.80;99.90
2497;DHT22;1259;48.306;14.374;2022-10-31T02:40:09;10.90;99.90
2497;DHT22;1259;48.306;14.374;2022-10-31T02:42:42;10.80;99.90
2497;DHT22;1259;48.306;14.374;2022-10-31T02:45:14;10.70;99.90
2497;DHT22;1259;48.306;14.374;2022-10-31T02:47:48;10.70;99.90
2497;DHT22;1259;48.306;14.374;2022-10-31T02:50:20;10.90;99.90
2497;DHT22;1259;48.306;14.374;2022-10-31T02:52:51;10.80;99.90
2497;DHT22;1259;48.306;14.374;2022-10-31T02:55:42;10.80;99.90
2497;DHT22;1259;48.306;14.374;2022-10-31T02:58:14;10.90;99.90
2497;DHT22;1259;48.306;14.374;2022-10-31T03:03:36;10.90;99.90
2497;DHT22;1259;48.306;14.374;2022-10-31T03:06:10;10.80;99.90
2497;DHT22;1259;48.306;14.374;2022-10-31T03:08:43;10.60;99.90
2497;DHT22;1259;48.306;14.374;2022-10-31T03:11:12;10.60;99.90
2497;DHT22;1259;48.306;14.374;2022-10-31T03:13:42;10.60;99.90
2497;DHT22;1259;48.306;14.374;2022-10-31T03:16:14;10.60;99.90
2497;DHT22;1259;48.306;14.374;2022-10-31T03:18:48;10.60;99.90
2497;DHT22;1259;48.306;14.374;2022-10-31T03:21:21;10.50;99.90
2497;DHT22;1259;48.306;14.374;2022-10-31T03:23:50;10.50;99.90
2497;DHT22;1259;48.306;14.374;2022-10-31T03:26:19;10.30;99.90
2497;DHT22;1259;48.306;14.374;2022-10-31T03:28:49;10.40;99.90
2497;DHT22;1259;48.306;14.374;2022-10-31T03:31:19;10.40;99.90
2497;DHT22;1259;48.306;14.374;2022-10-31T03:33:51;10.40;99.90
2497;DHT22;1259;48.306;14.374;2022-10-31T03:36:19;10.20;99.90
2497;DHT22;1259;48.306;14.374;2022-10-31T03:38:47;10.30;99.90
2497;DHT22;1259;48.306;14.374;2022-10-31T03:41:18;10.40;99.90
2497;DHT22;1259;48.306;14.374;2022-10-31T03:43:52;10.30;99.90
2497;DHT22;1259;48.306;14.374;2022-10-31T03:46:21;10.20;99.90
2497;DHT22;1259;48.306;14.374;2022-10-31T03:48:48;10.10;99.90
2497;DHT22;1259;48.306;14.374;2022-10-31T03:51:21;10.20;99.90
2497;DHT22;1259;48.306;14.374;2022-10-31T03:53:54;10.20;99.90
2497;DHT22;1259;48.306;14.374;2022-10-31T03:56:32;10.20;99.90
2497;DHT22;1259;48.306;14.374;2022-10-31T03:59:02;10.20;99.90
2497;DHT22;1259;48.306;14.374;2022-10-31T04:01:32;10.20;99.90
2497;DHT22;1259;48.306;14.374;2022-10-31T04:04:02;10.40;99.90
2497;DHT22;1259;48.306;14.374;2022-10-31T04:06:31;10.40;99.90
2497;DHT22;1259;48.306;14.374;2022-10-31T04:09:03;10.30;99.90
2497;DHT22;1259;48.306;14.374;2022-10-31T04:11:32;10.40;99.90
2497;DHT22;1259;48.306;14.374;2022-10-31T04:14:02;10.40;99.90
2497;DHT22;1259;48.306;14.374;2022-10-31T04:16:31;10.30;99.90
2497;DHT22;1259;48.306;14.374;2022-10-31T04:18:58;10.30;99.90
2497;DHT22;1259;48.306;14.374;2022-10-31T04:21:30;10.30;99.90
2497;DHT22;1259;48.306;14.374;2022-10-31T04:23:57;10.40;99.90
2497;DHT22;1259;48.306;14.374;2022-10-31T04:26:24;10.30;99.90
2497;DHT22;1259;48.306;14.374;2022-10-31T04:28:51;10.30;99.90
2497;DHT22;1259;48.306;14.374;2022-10-31T04:31:18;10.40;99.90
2497;DHT22;1259;48.306;14.374;2022-10-31T04:33:45;10.30;99.90
2497;DHT22;1259;48.306;14.374;2022-10-31T04:36:12;10.20;99.90
2497;DHT22;1259;48.306;14.374;2022-10-31T04:38:40;10.20;99.90
2497;DHT22;1259;48.306;14.374;2022-10-31T04:41:07;10.00;99.90
2497;DHT22;1259;48.306;14.374;2022-10-31T04:43:34;10.00;99.90
2497;DHT22;1259;48.306;14.374;2022-10-31T04:46:01;9.70;99.90
2497;DHT22;1259;48.306;14.374;2022-10-31T04:48:28;9.70;99.90
2497;DHT22;1259;48.306;14.374;2022-10-31T04:50:58;9.80;99.90
2497;DHT22;1259;48.306;14.374;2022-10-31T04:53:25;9.80;99.90
2497;DHT22;1259;48.306;14.374;2022-10-31T04:55:54;9.90;99.90
2497;DHT22;1259;48.306;14.374;2022-10-31T04:58:20;10.00;99.90
2497;DHT22;1259;48.306;14.374;2022-10-31T05:00:47;9.90;99.90
2497;DHT22;1259;48.306;14.374;2022-10-31T05:03:17;10.00;99.90
2497;DHT22;1259;48.306;14.374;2022-10-31T05:05:44;9.90;99.90
2497;DHT22;1259;48.306;14.374;2022-10-31T05:08:11;9.90;99.90
2497;DHT22;1259;48.306;14.374;2022-10-31T05:10:38;9.90;99.90
2497;DHT22;1259;48.306;14.374;2022-10-31T05:13:06;10.00;99.90
2497;DHT22;1259;48.306;14.374;2022-10-31T05:15:34;9.90;99.90
2497;DHT22;1259;48.306;14.374;2022-10-31T05:18:01;9.90;99.90
2497;DHT22;1259;48.306;14.374;2022-10-31T05:20:29;9.90;99.90
2497;DHT22;1259;48.306;14.374;2022-10-31T05:22:57;9.90;99.90
2497;DHT22;1259;48.306;14.374;2022-10-31T05:25:26;9.80;99.90
2497;DHT22;1259;48.306;14.374;2022-10-31T05:27:55;9.70;99.90
2497;DHT22;1259;48.306;14.374;2022-10-31T05:30:26;9.70;99.90
2497;DHT22;1259;48.306;14.374;2022-10-31T05:32:53;9.70;99.90
2497;DHT22;1259;48.306;14.374;2022-10-31T05:35:21;9.60;99.90
2497;DHT22;1259;48.306;14.374;2022-10-31T05:37:48;9.70;99.90
2497;DHT22;1259;48.306;14.374;2022-10-31T05:40:17;9.80;99.90
2497;DHT22;1259;48.306;14.374;2022-10-31T05:42:44;9.80;99.90
2497;DHT22;1259;48.306;14.374;2022-10-31T05:45:13;9.80;99.90
2497;DHT22;1259;48.306;14.374;2022-10-31T05:47:42;9.60;99.90
2497;DHT22;1259;48.306;14.374;2022-10-31T05:50:09;9.60;99.90
2497;DHT22;1259;48.306;14.374;2022-10-31T05:52:36;9.50;99.90
2497;DHT22;1259;48.306;14.374;2022-10-31T05:55:03;9.50;99.90
2497;DHT22;1259;48.306;14.374;2022-10-31T05:57:32;9.60;99.90
2497;DHT22;1259;48.306;14.374;2022-10-31T05:59:59;9.60;99.90
2497;DHT22;1259;48.306;14.374;2022-10-31T06:02:26;9.60;99.90
2497;DHT22;1259;48.306;14.374;2022-10-31T06:04:59;9.60;99.90
2497;DHT22;1259;48.306;14.374;2022-10-31T06:07:26;9.80;99.90
2497;DHT22;1259;48.306;14.374;2022-10-31T06:09:53;9.90;99.90
2497;DHT22;1259;48.306;14.374;2022-10-31T06:12:20;10.00;99.90
2497;DHT22;1259;48.306;14.374;2022-10-31T06:14:46;10.10;99.90
2497;DHT22;1259;48.306;14.374;2022-10-31T06:17:13;10.10;99.90
2497;DHT22;1259;48.306;14.374;2022-10-31T06:19:40;10.10;99.90
2497;DHT22;1259;48.306;14.374;2022-10-31T06:22:09;10.20;99.90
2497;DHT22;1259;48.306;14.374;2022-10-31T06:24:37;10.20;99.90
2497;DHT22;1259;48.306;14.374;2022-10-31T06:27:04;10.20;99.90
2497;DHT22;1259;48.306;14.374;2022-10-31T06:29:31;10.20;99.90
2497;DHT22;1259;48.306;14.374;2022-10-31T06:31:58;10.10;99.90
2497;DHT22;1259;48.306;14.374;2022-10-31T06:34:24;10.20;99.90
2497;DHT22;1259;48.306;14.374;2022-10-31T06:36:51;10.20;99.90
2497;DHT22;1259;48.306;14.374;2022-10-31T06:39:20;10.30;99.90
2497;DHT22;1259;48.306;14.374;2022-10-31T06:41:47;10.40;99.90
2497;DHT22;1259;48.306;14.374;2022-10-31T06:44:14;10.40;99.90
2497;DHT22;1259;48.306;14.374;2022-10-31T06:46:41;10.60;99.90
2497;DHT22;1259;48.306;14.374;2022-10-31T06:49:08;10.60;99.90
2497;DHT22;1259;48.306;14.374;2022-10-31T06:51:35;10.70;99.90
2497;DHT22;1259;48.306;14.374;2022-10-31T06:54:02;10.80;99.90
2497;DHT22;1259;48.306;14.374;2022-10-31T06:56:30;10.90;99.90
2497;DHT22;1259;48.306;14.374;2022-10-31T06:58:57;10.90;99.90
2497;DHT22;1259;48.306;14.374;2022-10-31T07:01:24;11.00;99.90
2497;DHT22;1259;48.306;14.374;2022-10-31T07:03:50;11.00;99.90
2497;DHT22;1259;48.306;14.374;2022-10-31T07:06:17;11.10;99.90
2497;DHT22;1259;48.306;14.374;2022-10-31T07:08:44;11.20;99.90
2497;DHT22;1259;48.306;14.374;2022-10-31T07:11:11;11.30;99.90
2497;DHT22;1259;48.306;14.374;2022-10-31T07:13:39;11.40;99.90
2497;DHT22;1259;48.306;14.374;2022-10-31T07:16:07;11.50;99.90
2497;DHT22;1259;48.306;14.374;2022-10-31T07:18:36;11.60;99.90
2497;DHT22;1259;48.306;14.374;2022-10-31T07:21:03;11.70;99.90
2497;DHT22;1259;48.306;14.374;2022-10-31T07:23:30;11.80;99.90
2497;DHT22;1259;48.306;14.374;2022-10-31T07:25:57;11.80;99.90
2497;DHT22;1259;48.306;14.374;2022-10-31T07:28:25;11.80;99.90
2497;DHT22;1259;48.306;14.374;2022-10-31T07:30:56;11.90;99.90
2497;DHT22;1259;48.306;14.374;2022-10-31T07:33:24;12.00;99.90
2497;DHT22;1259;48.306;14.374;2022-10-31T07:35:52;12.00;99.90
2497;DHT22;1259;48.306;14.374;2022-10-31T07:38:19;12.20;99.90
2497;DHT22;1259;48.306;14.374;2022-10-31T07:40:50;12.20;99.90
2497;DHT22;1259;48.306;14.374;2022-10-31T07:43:17;12.20;99.90
2497;DHT22;1259;48.306;14.374;2022-10-31T07:45:49;12.40;99.90
2497;DHT22;1259;48.306;14.374;2022-10-31T07:48:19;12.50;99.90
2497;DHT22;1259;48.306;14.374;2022-10-31T07:50:46;12.40;99.90
2497;DHT22;1259;48.306;14.374;2022-10-31T07:53:14;12.50;99.90
2497;DHT22;1259;48.306;14.374;2022-10-31T07:55:41;12.60;99.90
2497;DHT22;1259;48.306;14.374;2022-10-31T07:58:10;12.70;99.90
2497;DHT22;1259;48.306;14.374;2022-10-31T08:00:38;12.80;99.90
2497;DHT22;1259;48.306;14.374;2022-10-31T08:03:06;12.90;99.90
2497;DHT22;1259;48.306;14.374;2022-10-31T08:05:35;12.80;99.90
2497;DHT22;1259;48.306;14.374;2022-10-31T08:08:03;12.90;99.90
2497;DHT22;1259;48.306;14.374;2022-10-31T08:10:31;12.80;99.90
2497;DHT22;1259;48.306;14.374;2022-10-31T08:13:02;12.80;99.90
2497;DHT22;1259;48.306;14.374;2022-10-31T08:15:29;12.90;99.90
2497;DHT22;1259;48.306;14.374;2022-10-31T08:17:57;13.00;99.90
2497;DHT22;1259;48.306;14.374;2022-10-31T08:20:24;13.00;99.90
2497;DHT22;1259;48.306;14.374;2022-10-31T08:22:57;13.00;99.90
2497;DHT22;1259;48.306;14.374;2022-10-31T08:25:25;13.10;99.90
2497;DHT22;1259;48.306;14.374;2022-10-31T08:27:53;13.00;99.90
2497;DHT22;1259;48.306;14.374;2022-10-31T08:30:24;13.20;99.90
2497;DHT22;1259;48.306;14.374;2022-10-31T08:32:59;13.30;99.90
2497;DHT22;1259;48.306;14.374;2022-10-31T08:35:27;13.40;99.90
2497;DHT22;1259;48.306;14.374;2022-10-31T08:37:55;13.50;99.90
2497;DHT22;1259;48.306;14.374;2022-10-31T08:40:23;13.40;99.90
2497;DHT22;1259;48.306;14.374;2022-10-31T08:43:00;13.50;99.90
2497;DHT22;1259;48.306;14.374;2022-10-31T08:45:28;13.70;99.90
2497;DHT22;1259;48.306;14.374;2022-10-31T08:47:59;13.80;99.90
2497;DHT22;1259;48.306;14.374;2022-10-31T08:50:27;13.80;99.90
2497;DHT22;1259;48.306;14.374;2022-10-31T08:53:01;13.80;99.90
2497;DHT22;1259;48.306;14.374;2022-10-31T08:55:28;13.50;99.90
2497;DHT22;1259;48.306;14.374;2022-10-31T08:57:55;13.50;99.90
2497;DHT22;1259;48.306;14.374;2022-10-31T09:00:23;13.40;99.90
2497;DHT22;1259;48.306;14.374;2022-10-31T09:02:55;13.40;99.90
2497;DHT22;1259;48.306;14.374;2022-10-31T09:05:22;13.40;99.90
2497;DHT22;1259;48.306;14.374;2022-10-31T09:07:49;13.40;99.90
2497;DHT22;1259;48.306;14.374;2022-10-31T09:10:17;13.50;99.90
2497;DHT22;1259;48.306;14.374;2022-10-31T09:12:44;13.40;99.90
2497;DHT22;1259;48.306;14.374;2022-10-31T09:15:11;13.40;99.90
2497;DHT22;1259;48.306;14.374;2022-10-31T09:17:38;13.50;99.90
2497;DHT22;1259;48.306;14.374;2022-10-31T09:20:05;13.50;99.90
2497;DHT22;1259;48.306;14.374;2022-10-31T09:22:32;13.40;99.90
2497;DHT22;1259;48.306;14.374;2022-10-31T09:24:59;13.50;99.90
2497;DHT22;1259;48.306;14.374;2022-10-31T09:27:27;13.50;99.90
2497;DHT22;1259;48.306;14.374;2022-10-31T09:29:54;13.40;99.90
2497;DHT22;1259;48.306;14.374;2022-10-31T09:32:21;13.30;99.90
2497;DHT22;1259;48.306;14.374;2022-10-31T09:34:48;13.20;99.90
2497;DHT22;1259;48.306;14.374;2022-10-31T09:37:15;13.30;99.90
2497;DHT22;1259;48.306;14.374;2022-10-31T09:39:42;13.60;99.90
2497;DHT22;1259;48.306;14.374;2022-10-31T09:45:18;13.30;99.90
2497;DHT22;1259;48.306;14.374;2022-10-31T09:47:56;13.20;99.90
2497;DHT22;1259;48.306;14.374;2022-10-31T09:50:29;13.40;99.90
2497;DHT22;1259;48.306;14.374;2022-10-31T09:53:02;13.50;99.90
2497;DHT22;1259;48.306;14.374;2022-10-31T09:55:36;13.40;99.90
2497;DHT22;1259;48.306;14.374;2022-10-31T09:58:04;13.50;99.90
2497;DHT22;1259;48.306;14.374;2022-10-31T10:00:33;13.70;99.90
2497;DHT22;1259;48.306;14.374;2022-10-31T10:03:06;13.80;99.90
2497;DHT22;1259;48.306;14.374;2022-10-31T10:05:41;13.60;99.90
2497;DHT22;1259;48.306;14.374;2022-10-31T10:08:13;13.80;99.90
2497;DHT22;1259;48.306;14.374;2022-10-31T10:10:48;13.80;99.90
2497;DHT22;1259;48.306;14.374;2022-10-31T10:13:38;13.90;99.90
2497;DHT22;1259;48.306;14.374;2022-10-31T10:16:18;14.10;99.90
2497;DHT22;1259;48.306;14.374;2022-10-31T10:18:59;14.00;99.90
2497;DHT22;1259;48.306;14.374;2022-10-31T10:21:37;14.20;99.90
2497;DHT22;1259;48.306;14.374;2022-10-31T10:24:17;14.20;99.90
2497;DHT22;1259;48.306;14.374;2022-10-31T10:26:54;14.30;99.90
2497;DHT22;1259;48.306;14.374;2022-10-31T10:29:31;14.50;99.90
2497;DHT22;1259;48.306;14.374;2022-10-31T10:32:05;14.60;99.90
2497;DHT22;1259;48.306;14.374;2022-10-31T10:34:39;14.60;99.90
2497;DHT22;1259;48.306;14.374;2022-10-31T10:37:17;14.70;99.90
2497;DHT22;1259;48.306;14.374;2022-10-31T10:39:51;14.80;99.90
2497;DHT22;1259;48.306;14.374;2022-10-31T10:42:18;14.80;99.90
2497;DHT22;1259;48.306;14.374;2022-10-31T10:45:14;14.80;99.90
2497;DHT22;1259;48.306;14.374;2022-10-31T10:48:06;14.70;99.90
2497;DHT22;1259;48.306;14.374;2022-10-31T10:50:38;14.80;99.90
2497;DHT22;1259;48.306;14.374;2022-10-31T10:53:18;14.80;99.90
2497;DHT22;1259;48.306;14.374;2022-10-31T10:55:59;15.10;99.90
2497;DHT22;1259;48.306;14.374;2022-10-31T10:58:30;15.10;99.90
2497;DHT22;1259;48.306;14.374;2022-10-31T11:00:57;15.20;99.90
2497;DHT22;1259;48.306;14.374;2022-10-31T11:03:25;15.20;99.90
2497;DHT22;1259;48.306;14.374;2022-10-31T11:05:53;15.30;99.90
2497;DHT22;1259;48.306;14.374;2022-10-31T11:08:26;15.30;99.90
2497;DHT22;1259;48.306;14.374;2022-10-31T11:10:58;15.30;99.90
2497;DHT22;1259;48.306;14.374;2022-10-31T11:13:25;15.30;99.90
2497;DHT22;1259;48.306;14.374;2022-10-31T11:15:56;15.20;99.90
2497;DHT22;1259;48.306;14.374;2022-10-31T11:18:26;15.30;99.90
2497;DHT22;1259;48.306;14.374;2022-10-31T11:20:55;15.20;99.90
2497;DHT22;1259;48.306;14.374;2022-10-31T11:23:24;15.30;99.90
2497;DHT22;1259;48.306;14.374;2022-10-31T11:25:54;15.40;99.90
2497;DHT22;1259;48.306;14.374;2022-10-31T11:28:22;15.40;99.90
2497;DHT22;1259;48.306;14.374;2022-10-31T11:30:51;15.40;99.90
2497;DHT22;1259;48.306;14.374;2022-10-31T11:33:21;15.40;99.90
2497;DHT22;1259;48.306;14.374;2022-10-31T11:35:52;15.40;99.90
2497;DHT22;1259;48.306;14.374;2022-10-31T11:38:22;15.50;99.90
2497;DHT22;1259;48.306;14.374;2022-10-31T11:40:53;15.50;99.90
2497;DHT22;1259;48.306;14.374;2022-10-31T11:43:21;15.50;99.90
2497;DHT22;1259;48.306;14.374;2022-10-31T11:45:48;15.50;99.90
2497;DHT22;1259;48.306;14.374;2022-10-31T11:48:17;15.50;99.90
2497;DHT22;1259;48.306;14.374;2022-10-31T11:50:49;15.60;99.90
2497;DHT22;1259;48.306;14.374;2022-10-31T11:53:26;15.60;99.90
2497;DHT22;1259;48.306;14.374;2022-10-31T11:56:02;15.60;99.90
2497;DHT22;1259;48.306;14.374;2022-10-31T11:58:30;15.70;99.90
2497;DHT22;1259;48.306;14.374;2022-10-31T12:01:00;15.80;99.90
2497;DHT22;1259;48.306;14.374;2022-10-31T12:03:48;15.80;99.90
2497;DHT22;1259;48.306;14.374;2022-10-31T12:06:22;15.90;99.90
2497;DHT22;1259;48.306;14.374;2022-10-31T12:08:50;15.80;99.90
2497;DHT22;1259;48.306;14.374;2022-10-31T12:11:41;16.00;99.90
2497;DHT22;1259;48.306;14.374;2022-10-31T12:14:17;16.10;99.90
2497;DHT22;1259;48.306;14.374;2022-10-31T12:16:50;16.10;99.90
2497;DHT22;1259;48.306;14.374;2022-10-31T12:19:29;16.00;99.90
2497;DHT22;1259;48.306;14.374;2022-10-31T12:22:16;16.00;99.90
2497;DHT22;1259;48.306;14.374;2022-10-31T12:24:59;16.00;99.90
2497;DHT22;1259;48.306;14.374;2022-10-31T12:27:39;16.10;99.90
2497;DHT22;1259;48.306;14.374;2022-10-31T12:30:16;16.00;99.90
2497;DHT22;1259;48.306;14.374;2022-10-31T12:35:51;16.20;99.90
2497;DHT22;1259;48.306;14.374;2022-10-31T12:38:40;16.40;99.90
2497;DHT22;1259;48.306;14.374;2022-10-31T12:41:24;16.40;99.90
2497;DHT22;1259;48.306;14.374;2022-10-31T12:43:57;16.40;99.90
2497;DHT22;1259;48.306;14.374;2022-10-31T12:46:50;16.50;99.90
2497;DHT22;1259;48.306;14.374;2022-10-31T12:49:30;16.40;99.90
2497;DHT22;1259;48.306;14.374;2022-10-31T12:52:11;16.30;99.90
2497;DHT22;1259;48.306;14.374;2022-10-31T12:54:57;16.30;99.90
2497;DHT22;1259;48.306;14.374;2022-10-31T12:57:33;16.30;99.90
2497;DHT22;1259;48.306;14.374;2022-10-31T13:00:10;16.30;99.90
2497;DHT22;1259;48.306;14.374;2022-10-31T13:02:42;16.20;99.90
2497;DHT22;1259;48.306;14.374;2022-10-31T13:05:16;16.30;99.90
2497;DHT22;1259;48.306;14.374;2022-10-31T13:07:47;16.30;99.90
2497;DHT22;1259;48.306;14.374;2022-10-31T13:10:19;16.30;99.90
2497;DHT22;1259;48.306;14.374;2022-10-31T13:12:51;16.30;99.90
2497;DHT22;1259;48.306;14.374;2022-10-31T13:15:22;16.20;99.90
2497;DHT22;1259;48.306;14.374;2022-10-31T13:17:53;16.20;99.90
2497;DHT22;1259;48.306;14.374;2022-10-31T13:20:24;16.20;99.90
2497;DHT22;1259;48.306;14.374;2022-10-31T13:22:54;16.10;99.90
2497;DHT22;1259;48.306;14.374;2022-10-31T13:25:25;16.10;99.90
2497;DHT22;1259;48.306;14.374;2022-10-31T13:27:59;16.10;99.90
2497;DHT22;1259;48.306;14.374;2022-10-31T13:30:28;16.00;99.90
2497;DHT22;1259;48.306;14.374;2022-10-31T13:33:01;16.00;99.90
2497;DHT22;1259;48.306;14.374;2022-10-31T13:35:41;15.90;99.90
2497;DHT22;1259;48.306;14.374;2022-10-31T13:38:18;15.90;99.90
2497;DHT22;1259;48.306;14.374;2022-10-31T13:40:53;15.70;99.90
2497;DHT22;1259;48.306;14.374;2022-10-31T13:43:29;15.80;99.90
2497;DHT22;1259;48.306;14.374;2022-10-31T13:45:58;15.80;99.90
2497;DHT22;1259;48.306;14.374;2022-10-31T13:48:37;15.80;99.90
2497;DHT22;1259;48.306;14.374;2022-10-31T13:51:08;15.80;99.90
2497;DHT22;1259;48.306;14.374;2022-10-31T13:53:38;15.70;99.90
2497;DHT22;1259;48.306;14.374;2022-10-31T13:56:15;15.60;99.90
2497;DHT22;1259;48.306;14.374;2022-10-31T13:59:01;15.50;99.90
2497;DHT22;1259;48.306;14.374;2022-10-31T14:01:29;15.50;99.90
2497;DHT22;1259;48.306;14.374;2022-10-31T14:03:59;15.50;99.90
2497;DHT22;1259;48.306;14.374;2022-10-31T14:06:38;15.50;99.90
2497;DHT22;1259;48.306;14.374;2022-10-31T14:09:18;15.40;99.90
2497;DHT22;1259;48.306;14.374;2022-10-31T14:11:49;15.40;99.90
2497;DHT22;1259;48.306;14.374;2022-10-31T14:14:18;15.40;99.90
2497;DHT22;1259;48.306;14.374;2022-10-31T14:16:52;15.40;99.90
2497;DHT22;1259;48.306;14.374;2022-10-31T14:19:21;15.40;99.90
2497;DHT22;1259;48.306;14.374;2022-10-31T14:21:48;15.30;99.90
2497;DHT22;1259;48.306;14.374;2022-10-31T14:24:32;15.30;99.90
2497;DHT22;1259;48.306;14.374;2022-10-31T14:27:01;15.20;99.90
2497;DHT22;1259;48.306;14.374;2022-10-31T14:29:31;15.20;99.90
2497;DHT22;1259;48.306;14.374;2022-10-31T14:32:04;15.30;99.90
2497;DHT22;1259;48.306;14.374;2022-10-31T14:34:38;15.30;99.90
2497;DHT22;1259;48.306;14.374;2022-10-31T14:37:28;15.30;99.90
2497;DHT22;1259;48.306;14.374;2022-10-31T14:40:14;15.30;99.90
2497;DHT22;1259;48.306;14.374;2022-10-31T14:45:38;15.20;99.90
2497;DHT22;1259;48.306;14.374;2022-10-31T14:48:17;15.20;99.90
2497;DHT22;1259;48.306;14.374;2022-10-31T14:50:51;15.20;99.90
2497;DHT22;1259;48.306;14.374;2022-10-31T14:53:23;15.10;99.90
2497;DHT22;1259;48.306;14.374;2022-10-31T14:55:53;15.10;99.90
2497;DHT22;1259;48.306;14.374;2022-10-31T14:58:23;15.10;99.90
2497;DHT22;1259;48.306;14.374;2022-10-31T15:00:55;15.10;99.90
2497;DHT22;1259;48.306;14.374;2022-10-31T15:03:27;15.00;99.90
2497;DHT22;1259;48.306;14.374;2022-10-31T15:05:59;14.90;99.90
2497;DHT22;1259;48.306;14.374;2022-10-31T15:08:31;14.90;99.90
2497;DHT22;1259;48.306;14.374;2022-10-31T15:10:58;14.90;99.90
2497;DHT22;1259;48.306;14.374;2022-10-31T15:13:28;14.90;99.90
2497;DHT22;1259;48.306;14.374;2022-10-31T15:15:57;15.10;99.90
2497;DHT22;1259;48.306;14.374;2022-10-31T15:18:26;15.10;99.90
2497;DHT22;1259;48.306;14.374;2022-10-31T15:20:54;15.20;99.90
2497;DHT22;1259;48.306;14.374;2022-10-31T15:23:24;15.10;99.90
2497;DHT22;1259;48.306;14.374;2022-10-31T15:25:58;15.20;99.90
2497;DHT22;1259;48.306;14.374;2022-10-31T15:28:26;15.20;99.90
2497;DHT22;1259;48.306;14.374;2022-10-31T15:30:54;15.20;99.90
2497;DHT22;1259;48.306;14.374;2022-10-31T15:33:25;15.20;99.90
2497;DHT22;1259;48.306;14.374;2022-10-31T15:35:57;15.20;99.90
2497;DHT22;1259;48.306;14.374;2022-10-31T15:38:25;15.20;99.90
2497;DHT22;1259;48.306;14.374;2022-10-31T15:40:57;15.00;99.90
2497;DHT22;1259;48.306;14.374;2022-10-31T15:43:32;15.00;99.90
2497;DHT22;1259;48.306;14.374;2022-10-31T15:46:02;14.90;99.90
2497;DHT22;1259;48.306;14.374;2022-10-31T15:48:31;14.90;99.90
2497;DHT22;1259;48.306;14.374;2022-10-31T15:51:00;14.90;99.90
2497;DHT22;1259;48.306;14.374;2022-10-31T15:53:45;14.90;99.90
2497;DHT22;1259;48.306;14.374;2022-10-31T15:56:19;14.90;99.90
2497;DHT22;1259;48.306;14.374;2022-10-31T15:58:48;14.90;99.90
2497;DHT22;1259;48.306;14.374;2022-10-31T16:01:22;14.90;99.90
2497;DHT22;1259;48.306;14.374;2022-10-31T16:04:21;14.80;99.90
2497;DHT22;1259;48.306;14.374;2022-10-31T16:06:58;14.80;99.90
2497;DHT22;1259;48.306;14.374;2022-10-31T16:09:26;14.80;99.90
2497;DHT22;1259;48.306;14.374;2022-10-31T16:11:55;14.80;99.90
2497;DHT22;1259;48.306;14.374;2022-10-31T16:14:25;14.90;99.90
2497;DHT22;1259;48.306;14.374;2022-10-31T16:16:54;14.90;99.90
2497;DHT22;1259;48.306;14.374;2022-10-31T16:19:26;14.80;99.90
2497;DHT22;1259;48.306;14.374;2022-10-31T16:21:55;14.70;99.90
2497;DHT22;1259;48.306;14.374;2022-10-31T16:24:30;14.70;99.90